sensor_id;sensor_type;location;lat;lon;timestamp;P1;durP1;ratioP1;P2;durP2;ratioP2
19167;SDS011;9716;53.114;18.040;2022-09-03T00:00:09;0.85;;;0.82;;
19167;SDS011;9716;53.114;18.040;2022-09-03T00:03:01;2.75;;;1.25;;
19167;SDS011;9716;53.114;18.040;2022-09-03T00:05:36;0.80;;;0.80;;
19167;SDS011;9716;53.114;18.040;2022-09-03T00:08:09;1.25;;;0.88;;
19167;SDS011;9716;53.114;18.040;2022-09-03T00:10:42;1.08;;;0.90;;
19167;SDS011;9716;53.114;18.040;2022-09-03T00:13:19;1.50;;;0.98;;
19167;SDS011;9716;53.114;18.040;2022-09-03T00:15:51;1.65;;;0.90;;
19167;SDS011;9716;53.114;18.040;2022-09-03T00:18:23;0.80;;;0.80;;
19167;SDS011;9716;53.114;18.040;2022-09-03T00:20:58;1.95;;;1.10;;
19167;SDS011;9716;53.114;18.040;2022-09-03T00:23:34;0.80;;;0.80;;
19167;SDS011;9716;53.114;18.040;2022-09-03T00:26:15;1.08;;;0.80;;
19167;SDS011;9716;53.114;18.040;2022-09-03T00:28:53;1.95;;;0.70;;
19167;SDS011;9716;53.114;18.040;2022-09-03T00:31:28;2.00;;;1.00;;
19167;SDS011;9716;53.114;18.040;2022-09-03T00:33:59;1.17;;;0.82;;
19167;SDS011;9716;53.114;18.040;2022-09-03T00:36:34;2.33;;;0.88;;
19167;SDS011;9716;53.114;18.040;2022-09-03T00:39:08;1.00;;;0.70;;
19167;SDS011;9716;53.114;18.040;2022-09-03T00:41:40;7.32;;;0.93;;
19167;SDS011;9716;53.114;18.040;2022-09-03T00:47:21;4.68;;;0.73;;
19167;SDS011;9716;53.114;18.040;2022-09-03T00:49:58;0.90;;;0.90;;
19167;SDS011;9716;53.114;18.040;2022-09-03T00:52:39;3.28;;;1.33;;
19167;SDS011;9716;53.114;18.040;2022-09-03T00:55:16;4.90;;;1.10;;
19167;SDS011;9716;53.114;18.040;2022-09-03T00:57:57;1.80;;;0.85;;
19167;SDS011;9716;53.114;18.040;2022-09-03T01:00:38;3.17;;;1.13;;
19167;SDS011;9716;53.114;18.040;2022-09-03T01:03:12;1.20;;;0.90;;
19167;SDS011;9716;53.114;18.040;2022-09-03T01:05:56;0.90;;;0.90;;
19167;SDS011;9716;53.114;18.040;2022-09-03T01:08:57;7.03;;;0.93;;
19167;SDS011;9716;53.114;18.040;2022-09-03T01:11:37;1.17;;;0.88;;
19167;SDS011;9716;53.114;18.040;2022-09-03T01:14:19;2.22;;;0.95;;
19167;SDS011;9716;53.114;18.040;2022-09-03T01:16:56;1.75;;;0.68;;
19167;SDS011;9716;53.114;18.040;2022-09-03T01:19:37;1.65;;;1.10;;
19167;SDS011;9716;53.114;18.040;2022-09-03T01:22:38;2.78;;;1.10;;
19167;SDS011;9716;53.114;18.040;2022-09-03T01:25:28;2.28;;;1.23;;
19167;SDS011;9716;53.114;18.040;2022-09-03T01:28:13;1.63;;;1.00;;
19167;SDS011;9716;53.114;18.040;2022-09-03T01:30:47;3.80;;;1.08;;
19167;SDS011;9716;53.114;18.040;2022-09-03T01:33:24;1.52;;;1.10;;
19167;SDS011;9716;53.114;18.040;2022-09-03T01:36:02;1.70;;;1.00;;
19167;SDS011;9716;53.114;18.040;2022-09-03T01:38:40;2.08;;;1.10;;
19167;SDS011;9716;53.114;18.040;2022-09-03T01:41:16;1.77;;;0.85;;
19167;SDS011;9716;53.114;18.040;2022-09-03T01:44:19;2.42;;;0.90;;
19167;SDS011;9716;53.114;18.040;2022-09-03T01:46:58;5.72;;;1.30;;
19167;SDS011;9716;53.114;18.040;2022-09-03T01:49:39;1.77;;;1.10;;
19167;SDS011;9716;53.114;18.040;2022-09-03T01:52:14;2.25;;;0.93;;
19167;SDS011;9716;53.114;18.040;2022-09-03T01:54:51;1.08;;;0.85;;
19167;SDS011;9716;53.114;18.040;2022-09-03T01:57:34;1.13;;;1.02;;
19167;SDS011;9716;53.114;18.040;2022-09-03T02:00:19;1.58;;;1.00;;
19167;SDS011;9716;53.114;18.040;2022-09-03T02:02:49;1.75;;;0.80;;
19167;SDS011;9716;53.114;18.040;2022-09-03T02:05:19;6.65;;;1.10;;
19167;SDS011;9716;53.114;18.040;2022-09-03T02:07:55;0.95;;;0.77;;
19167;SDS011;9716;53.114;18.040;2022-09-03T02:10:27;1.63;;;1.00;;
19167;SDS011;9716;53.114;18.040;2022-09-03T02:13:00;3.53;;;1.30;;
19167;SDS011;9716;53.114;18.040;2022-09-03T02:15:35;1.40;;;1.00;;
19167;SDS011;9716;53.114;18.040;2022-09-03T02:18:05;2.10;;;1.15;;
19167;SDS011;9716;53.114;18.040;2022-09-03T02:20:38;1.90;;;1.10;;
19167;SDS011;9716;53.114;18.040;2022-09-03T02:23:07;2.55;;;1.25;;
19167;SDS011;9716;53.114;18.040;2022-09-03T02:25:36;0.75;;;0.75;;
19167;SDS011;9716;53.114;18.040;2022-09-03T02:28:08;2.92;;;0.90;;
19167;SDS011;9716;53.114;18.040;2022-09-03T02:30:50;1.30;;;0.88;;
19167;SDS011;9716;53.114;18.040;2022-09-03T02:33:19;2.50;;;1.00;;
19167;SDS011;9716;53.114;18.040;2022-09-03T02:35:47;1.38;;;0.98;;
19167;SDS011;9716;53.114;18.040;2022-09-03T02:38:17;0.98;;;0.90;;
19167;SDS011;9716;53.114;18.040;2022-09-03T02:40:47;4.32;;;1.00;;
19167;SDS011;9716;53.114;18.040;2022-09-03T02:43:16;1.58;;;0.80;;
19167;SDS011;9716;53.114;18.040;2022-09-03T02:45:54;1.77;;;0.93;;
19167;SDS011;9716;53.114;18.040;2022-09-03T02:48:28;1.13;;;0.93;;
19167;SDS011;9716;53.114;18.040;2022-09-03T02:50:57;1.05;;;0.95;;
19167;SDS011;9716;53.114;18.040;2022-09-03T02:53:25;0.77;;;0.77;;
19167;SDS011;9716;53.114;18.040;2022-09-03T02:55:56;2.05;;;0.80;;
19167;SDS011;9716;53.114;18.040;2022-09-03T02:58:26;1.65;;;1.08;;
19167;SDS011;9716;53.114;18.040;2022-09-03T03:00:58;0.85;;;0.85;;
19167;SDS011;9716;53.114;18.040;2022-09-03T03:03:27;3.90;;;1.00;;
19167;SDS011;9716;53.114;18.040;2022-09-03T03:05:57;1.70;;;1.00;;
19167;SDS011;9716;53.114;18.040;2022-09-03T03:08:27;0.93;;;0.75;;
19167;SDS011;9716;53.114;18.040;2022-09-03T03:10:59;1.27;;;1.02;;
19167;SDS011;9716;53.114;18.040;2022-09-03T03:13:29;1.83;;;0.80;;
19167;SDS011;9716;53.114;18.040;2022-09-03T03:16:00;1.42;;;0.90;;
19167;SDS011;9716;53.114;18.040;2022-09-03T03:18:32;1.65;;;0.70;;
19167;SDS011;9716;53.114;18.040;2022-09-03T03:21:02;1.50;;;1.13;;
19167;SDS011;9716;53.114;18.040;2022-09-03T03:23:32;1.60;;;0.80;;
19167;SDS011;9716;53.114;18.040;2022-09-03T03:26:01;1.38;;;1.00;;
19167;SDS011;9716;53.114;18.040;2022-09-03T03:28:30;1.67;;;1.15;;
19167;SDS011;9716;53.114;18.040;2022-09-03T03:31:05;0.93;;;0.85;;
19167;SDS011;9716;53.114;18.040;2022-09-03T03:33:34;5.07;;;1.25;;
19167;SDS011;9716;53.114;18.040;2022-09-03T03:36:04;1.15;;;0.93;;
19167;SDS011;9716;53.114;18.040;2022-09-03T03:38:33;1.10;;;0.95;;
19167;SDS011;9716;53.114;18.040;2022-09-03T03:41:05;0.82;;;0.82;;
19167;SDS011;9716;53.114;18.040;2022-09-03T03:43:35;1.73;;;1.20;;
19167;SDS011;9716;53.114;18.040;2022-09-03T03:46:05;1.02;;;0.93;;
19167;SDS011;9716;53.114;18.040;2022-09-03T03:48:34;0.90;;;0.90;;
19167;SDS011;9716;53.114;18.040;2022-09-03T03:51:04;4.18;;;1.40;;
19167;SDS011;9716;53.114;18.040;2022-09-03T03:53:35;2.47;;;1.02;;
19167;SDS011;9716;53.114;18.040;2022-09-03T03:56:05;2.13;;;1.30;;
19167;SDS011;9716;53.114;18.040;2022-09-03T03:58:35;3.67;;;0.73;;
19167;SDS011;9716;53.114;18.040;2022-09-03T04:01:10;0.80;;;0.80;;
19167;SDS011;9716;53.114;18.040;2022-09-03T04:03:41;1.23;;;0.90;;
19167;SDS011;9716;53.114;18.040;2022-09-03T04:06:11;0.82;;;0.82;;
19167;SDS011;9716;53.114;18.040;2022-09-03T04:08:41;1.23;;;1.00;;
19167;SDS011;9716;53.114;18.040;2022-09-03T04:11:14;1.80;;;1.08;;
19167;SDS011;9716;53.114;18.040;2022-09-03T04:13:44;1.88;;;1.25;;
19167;SDS011;9716;53.114;18.040;2022-09-03T04:16:16;1.08;;;0.98;;
19167;SDS011;9716;53.114;18.040;2022-09-03T04:18:45;2.17;;;1.20;;
19167;SDS011;9716;53.114;18.040;2022-09-03T04:21:16;2.05;;;1.05;;
19167;SDS011;9716;53.114;18.040;2022-09-03T04:23:46;1.85;;;1.15;;
19167;SDS011;9716;53.114;18.040;2022-09-03T04:26:16;2.47;;;1.10;;
19167;SDS011;9716;53.114;18.040;2022-09-03T04:28:46;2.22;;;1.40;;
19167;SDS011;9716;53.114;18.040;2022-09-03T04:31:16;6.25;;;1.25;;
19167;SDS011;9716;53.114;18.040;2022-09-03T04:33:46;3.33;;;0.80;;
19167;SDS011;9716;53.114;18.040;2022-09-03T04:36:15;4.07;;;1.33;;
19167;SDS011;9716;53.114;18.040;2022-09-03T04:38:46;1.30;;;1.17;;
19167;SDS011;9716;53.114;18.040;2022-09-03T04:41:16;1.63;;;1.13;;
19167;SDS011;9716;53.114;18.040;2022-09-03T04:43:46;3.58;;;1.23;;
19167;SDS011;9716;53.114;18.040;2022-09-03T04:46:19;1.52;;;1.05;;
19167;SDS011;9716;53.114;18.040;2022-09-03T04:48:50;2.95;;;1.40;;
19167;SDS011;9716;53.114;18.040;2022-09-03T04:51:20;2.00;;;1.40;;
19167;SDS011;9716;53.114;18.040;2022-09-03T04:53:52;3.47;;;1.20;;
19167;SDS011;9716;53.114;18.040;2022-09-03T04:56:23;1.30;;;1.20;;
19167;SDS011;9716;53.114;18.040;2022-09-03T04:58:53;2.28;;;1.10;;
19167;SDS011;9716;53.114;18.040;2022-09-03T05:01:24;3.63;;;1.35;;
19167;SDS011;9716;53.114;18.040;2022-09-03T05:03:54;2.65;;;1.50;;
19167;SDS011;9716;53.114;18.040;2022-09-03T05:06:23;1.25;;;1.10;;
19167;SDS011;9716;53.114;18.040;2022-09-03T05:08:53;3.22;;;1.92;;
19167;SDS011;9716;53.114;18.040;2022-09-03T05:11:23;9.00;;;1.40;;
19167;SDS011;9716;53.114;18.040;2022-09-03T05:13:53;3.45;;;1.08;;
19167;SDS011;9716;53.114;18.040;2022-09-03T05:16:24;1.30;;;1.20;;
19167;SDS011;9716;53.114;18.040;2022-09-03T05:18:56;11.25;;;1.48;;
19167;SDS011;9716;53.114;18.040;2022-09-03T05:21:27;2.53;;;1.27;;
19167;SDS011;9716;53.114;18.040;2022-09-03T05:23:58;1.92;;;1.38;;
19167;SDS011;9716;53.114;18.040;2022-09-03T05:26:27;4.13;;;1.65;;
19167;SDS011;9716;53.114;18.040;2022-09-03T05:28:57;3.70;;;1.40;;
19167;SDS011;9716;53.114;18.040;2022-09-03T05:31:28;2.15;;;1.13;;
19167;SDS011;9716;53.114;18.040;2022-09-03T05:33:58;1.52;;;1.23;;
19167;SDS011;9716;53.114;18.040;2022-09-03T05:36:29;1.60;;;1.23;;
19167;SDS011;9716;53.114;18.040;2022-09-03T05:39:00;1.10;;;1.00;;
19167;SDS011;9716;53.114;18.040;2022-09-03T05:41:29;1.42;;;1.17;;
19167;SDS011;9716;53.114;18.040;2022-09-03T05:43:59;2.78;;;0.98;;
19167;SDS011;9716;53.114;18.040;2022-09-03T05:46:31;2.40;;;0.90;;
19167;SDS011;9716;53.114;18.040;2022-09-03T05:49:03;1.63;;;1.00;;
19167;SDS011;9716;53.114;18.040;2022-09-03T05:51:33;2.03;;;1.10;;
19167;SDS011;9716;53.114;18.040;2022-09-03T05:54:05;2.55;;;1.25;;
19167;SDS011;9716;53.114;18.040;2022-09-03T05:56:35;2.60;;;1.00;;
19167;SDS011;9716;53.114;18.040;2022-09-03T05:59:08;0.82;;;0.80;;
19167;SDS011;9716;53.114;18.040;2022-09-03T06:01:38;0.85;;;0.85;;
19167;SDS011;9716;53.114;18.040;2022-09-03T06:04:18;1.08;;;0.85;;
19167;SDS011;9716;53.114;18.040;2022-09-03T06:06:47;4.95;;;0.88;;
19167;SDS011;9716;53.114;18.040;2022-09-03T06:09:16;2.63;;;1.08;;
19167;SDS011;9716;53.114;18.040;2022-09-03T06:11:46;2.10;;;0.85;;
19167;SDS011;9716;53.114;18.040;2022-09-03T06:14:17;2.83;;;0.95;;
19167;SDS011;9716;53.114;18.040;2022-09-03T06:16:47;9.82;;;1.35;;
19167;SDS011;9716;53.114;18.040;2022-09-03T06:19:18;1.23;;;0.90;;
19167;SDS011;9716;53.114;18.040;2022-09-03T06:21:46;0.70;;;0.70;;
19167;SDS011;9716;53.114;18.040;2022-09-03T06:24:16;0.60;;;0.60;;
19167;SDS011;9716;53.114;18.040;2022-09-03T06:26:46;1.15;;;1.00;;
19167;SDS011;9716;53.114;18.040;2022-09-03T06:29:15;3.78;;;0.98;;
19167;SDS011;9716;53.114;18.040;2022-09-03T06:31:47;1.73;;;1.05;;
19167;SDS011;9716;53.114;18.040;2022-09-03T06:34:16;3.50;;;0.73;;
19167;SDS011;9716;53.114;18.040;2022-09-03T06:36:45;0.77;;;0.75;;
19167;SDS011;9716;53.114;18.040;2022-09-03T06:39:13;0.95;;;0.80;;
19167;SDS011;9716;53.114;18.040;2022-09-03T06:41:42;0.75;;;0.63;;
19167;SDS011;9716;53.114;18.040;2022-09-03T06:44:11;1.63;;;0.93;;
19167;SDS011;9716;53.114;18.040;2022-09-03T06:46:40;0.82;;;0.82;;
19167;SDS011;9716;53.114;18.040;2022-09-03T06:49:11;0.85;;;0.80;;
19167;SDS011;9716;53.114;18.040;2022-09-03T06:51:40;0.65;;;0.52;;
19167;SDS011;9716;53.114;18.040;2022-09-03T06:54:10;0.75;;;0.68;;
19167;SDS011;9716;53.114;18.040;2022-09-03T06:56:41;0.75;;;0.70;;
19167;SDS011;9716;53.114;18.040;2022-09-03T06:59:10;5.57;;;1.27;;
19167;SDS011;9716;53.114;18.040;2022-09-03T07:01:40;1.23;;;0.85;;
19167;SDS011;9716;53.114;18.040;2022-09-03T07:04:13;0.68;;;0.63;;
19167;SDS011;9716;53.114;18.040;2022-09-03T07:06:46;2.25;;;0.70;;
19167;SDS011;9716;53.114;18.040;2022-09-03T07:09:14;1.05;;;0.63;;
19167;SDS011;9716;53.114;18.040;2022-09-03T07:11:44;0.75;;;0.60;;
19167;SDS011;9716;53.114;18.040;2022-09-03T07:14:15;1.27;;;0.75;;
19167;SDS011;9716;53.114;18.040;2022-09-03T07:16:45;1.58;;;0.70;;
19167;SDS011;9716;53.114;18.040;2022-09-03T07:19:15;0.60;;;0.60;;
19167;SDS011;9716;53.114;18.040;2022-09-03T07:21:45;2.47;;;0.77;;
19167;SDS011;9716;53.114;18.040;2022-09-03T07:24:16;0.60;;;0.60;;
19167;SDS011;9716;53.114;18.040;2022-09-03T07:26:48;0.40;;;0.40;;
19167;SDS011;9716;53.114;18.040;2022-09-03T07:29:17;1.00;;;0.60;;
19167;SDS011;9716;53.114;18.040;2022-09-03T07:31:47;1.05;;;0.60;;
19167;SDS011;9716;53.114;18.040;2022-09-03T07:34:20;1.13;;;0.60;;
19167;SDS011;9716;53.114;18.040;2022-09-03T07:36:52;0.55;;;0.55;;
19167;SDS011;9716;53.114;18.040;2022-09-03T07:39:21;6.75;;;0.60;;
19167;SDS011;9716;53.114;18.040;2022-09-03T07:41:50;0.75;;;0.60;;
19167;SDS011;9716;53.114;18.040;2022-09-03T07:44:19;0.68;;;0.60;;
19167;SDS011;9716;53.114;18.040;2022-09-03T07:46:50;0.95;;;0.70;;
19167;SDS011;9716;53.114;18.040;2022-09-03T07:49:19;0.65;;;0.57;;
19167;SDS011;9716;53.114;18.040;2022-09-03T07:51:49;1.23;;;0.80;;
19167;SDS011;9716;53.114;18.040;2022-09-03T07:54:20;0.57;;;0.55;;
19167;SDS011;9716;53.114;18.040;2022-09-03T07:56:51;0.50;;;0.50;;
19167;SDS011;9716;53.114;18.040;2022-09-03T07:59:22;0.50;;;0.50;;
19167;SDS011;9716;53.114;18.040;2022-09-03T08:01:51;0.68;;;0.63;;
19167;SDS011;9716;53.114;18.040;2022-09-03T08:04:21;0.50;;;0.50;;
19167;SDS011;9716;53.114;18.040;2022-09-03T08:06:50;1.38;;;0.65;;
19167;SDS011;9716;53.114;18.040;2022-09-03T08:09:21;2.25;;;0.60;;
19167;SDS011;9716;53.114;18.040;2022-09-03T08:11:50;2.90;;;0.90;;
19167;SDS011;9716;53.114;18.040;2022-09-03T08:14:18;1.75;;;1.00;;
19167;SDS011;9716;53.114;18.040;2022-09-03T08:16:48;3.55;;;0.73;;
19167;SDS011;9716;53.114;18.040;2022-09-03T08:19:17;0.68;;;0.55;;
19167;SDS011;9716;53.114;18.040;2022-09-03T08:21:47;0.47;;;0.47;;
19167;SDS011;9716;53.114;18.040;2022-09-03T08:24:16;8.85;;;0.65;;
19167;SDS011;9716;53.114;18.040;2022-09-03T08:26:46;0.55;;;0.55;;
19167;SDS011;9716;53.114;18.040;2022-09-03T08:29:18;0.50;;;0.50;;
19167;SDS011;9716;53.114;18.040;2022-09-03T08:31:47;2.65;;;0.90;;
19167;SDS011;9716;53.114;18.040;2022-09-03T08:34:16;0.68;;;0.50;;
19167;SDS011;9716;53.114;18.040;2022-09-03T08:36:45;1.05;;;0.77;;
19167;SDS011;9716;53.114;18.040;2022-09-03T08:39:16;1.58;;;0.60;;
19167;SDS011;9716;53.114;18.040;2022-09-03T08:44:49;1.13;;;0.80;;
19167;SDS011;9716;53.114;18.040;2022-09-03T08:47:23;0.93;;;0.80;;
19167;SDS011;9716;53.114;18.040;2022-09-03T08:49:56;0.93;;;0.80;;
19167;SDS011;9716;53.114;18.040;2022-09-03T08:52:30;3.15;;;0.85;;
19167;SDS011;9716;53.114;18.040;2022-09-03T08:55:12;0.50;;;0.50;;
19167;SDS011;9716;53.114;18.040;2022-09-03T08:57:47;6.97;;;0.70;;
19167;SDS011;9716;53.114;18.040;2022-09-03T09:00:18;2.05;;;0.80;;
19167;SDS011;9716;53.114;18.040;2022-09-03T09:02:49;0.70;;;0.70;;
19167;SDS011;9716;53.114;18.040;2022-09-03T09:05:27;0.50;;;0.50;;
19167;SDS011;9716;53.114;18.040;2022-09-03T09:08:05;0.57;;;0.57;;
19167;SDS011;9716;53.114;18.040;2022-09-03T09:10:44;1.08;;;0.80;;
19167;SDS011;9716;53.114;18.040;2022-09-03T09:13:17;0.85;;;0.68;;
19167;SDS011;9716;53.114;18.040;2022-09-03T09:15:57;1.08;;;0.90;;
19167;SDS011;9716;53.114;18.040;2022-09-03T09:18:36;0.82;;;0.70;;
19167;SDS011;9716;53.114;18.040;2022-09-03T09:21:17;0.75;;;0.70;;
19167;SDS011;9716;53.114;18.040;2022-09-03T09:23:53;3.83;;;0.80;;
19167;SDS011;9716;53.114;18.040;2022-09-03T09:26:29;7.05;;;0.70;;
19167;SDS011;9716;53.114;18.040;2022-09-03T09:28:59;1.30;;;0.50;;
19167;SDS011;9716;53.114;18.040;2022-09-03T09:31:36;0.82;;;0.73;;
19167;SDS011;9716;53.114;18.040;2022-09-03T09:34:07;0.70;;;0.60;;
19167;SDS011;9716;53.114;18.040;2022-09-03T09:36:36;0.60;;;0.60;;
19167;SDS011;9716;53.114;18.040;2022-09-03T09:39:10;5.07;;;0.70;;
19167;SDS011;9716;53.114;18.040;2022-09-03T09:41:53;2.42;;;0.77;;
19167;SDS011;9716;53.114;18.040;2022-09-03T09:44:25;1.80;;;0.88;;
19167;SDS011;9716;53.114;18.040;2022-09-03T09:47:03;2.05;;;0.63;;
19167;SDS011;9716;53.114;18.040;2022-09-03T09:49:36;0.50;;;0.50;;
19167;SDS011;9716;53.114;18.040;2022-09-03T09:52:17;0.80;;;0.80;;
19167;SDS011;9716;53.114;18.040;2022-09-03T09:54:51;1.88;;;1.13;;
19167;SDS011;9716;53.114;18.040;2022-09-03T09:57:23;1.45;;;0.75;;
19167;SDS011;9716;53.114;18.040;2022-09-03T10:00:00;5.35;;;1.05;;
19167;SDS011;9716;53.114;18.040;2022-09-03T10:02:34;5.47;;;0.88;;
19167;SDS011;9716;53.114;18.040;2022-09-03T10:05:11;1.33;;;0.80;;
19167;SDS011;9716;53.114;18.040;2022-09-03T10:07:42;0.45;;;0.45;;
19167;SDS011;9716;53.114;18.040;2022-09-03T10:10:21;13.95;;;0.85;;
19167;SDS011;9716;53.114;18.040;2022-09-03T10:12:54;0.85;;;0.68;;
19167;SDS011;9716;53.114;18.040;2022-09-03T10:15:29;8.10;;;0.77;;
19167;SDS011;9716;53.114;18.040;2022-09-03T10:18:06;1.50;;;0.65;;
19167;SDS011;9716;53.114;18.040;2022-09-03T10:20:42;1.60;;;0.88;;
19167;SDS011;9716;53.114;18.040;2022-09-03T10:23:18;4.15;;;1.00;;
19167;SDS011;9716;53.114;18.040;2022-09-03T10:25:52;0.60;;;0.60;;
19167;SDS011;9716;53.114;18.040;2022-09-03T10:28:32;0.73;;;0.70;;
19167;SDS011;9716;53.114;18.040;2022-09-03T10:31:12;1.38;;;0.57;;
19167;SDS011;9716;53.114;18.040;2022-09-03T10:34:05;0.75;;;0.60;;
19167;SDS011;9716;53.114;18.040;2022-09-03T10:36:41;0.98;;;0.60;;
19167;SDS011;9716;53.114;18.040;2022-09-03T10:39:18;1.95;;;0.60;;
19167;SDS011;9716;53.114;18.040;2022-09-03T10:41:54;1.65;;;0.52;;
19167;SDS011;9716;53.114;18.040;2022-09-03T10:44:38;0.57;;;0.57;;
19167;SDS011;9716;53.114;18.040;2022-09-03T10:47:22;1.50;;;0.70;;
19167;SDS011;9716;53.114;18.040;2022-09-03T10:50:07;1.02;;;0.55;;
19167;SDS011;9716;53.114;18.040;2022-09-03T10:52:54;0.50;;;0.50;;
19167;SDS011;9716;53.114;18.040;2022-09-03T10:55:39;0.63;;;0.63;;
19167;SDS011;9716;53.114;18.040;2022-09-03T10:58:25;1.17;;;0.65;;
19167;SDS011;9716;53.114;18.040;2022-09-03T11:01:12;0.93;;;0.52;;
19167;SDS011;9716;53.114;18.040;2022-09-03T11:03:48;0.40;;;0.40;;
19167;SDS011;9716;53.114;18.040;2022-09-03T11:06:28;2.85;;;0.90;;
19167;SDS011;9716;53.114;18.040;2022-09-03T11:09:12;0.70;;;0.50;;
19167;SDS011;9716;53.114;18.040;2022-09-03T11:11:44;1.58;;;0.75;;
19167;SDS011;9716;53.114;18.040;2022-09-03T11:14:20;2.00;;;0.60;;
19167;SDS011;9716;53.114;18.040;2022-09-03T11:16:59;0.80;;;0.45;;
19167;SDS011;9716;53.114;18.040;2022-09-03T11:19:33;4.07;;;1.23;;
19167;SDS011;9716;53.114;18.040;2022-09-03T11:22:08;2.72;;;1.13;;
19167;SDS011;9716;53.114;18.040;2022-09-03T11:24:43;1.08;;;0.73;;
19167;SDS011;9716;53.114;18.040;2022-09-03T11:27:19;0.60;;;0.60;;
19167;SDS011;9716;53.114;18.040;2022-09-03T11:29:57;6.95;;;0.95;;
19167;SDS011;9716;53.114;18.040;2022-09-03T11:32:32;0.73;;;0.60;;
19167;SDS011;9716;53.114;18.040;2022-09-03T11:35:13;0.93;;;0.80;;
19167;SDS011;9716;53.114;18.040;2022-09-03T11:37:48;0.82;;;0.82;;
19167;SDS011;9716;53.114;18.040;2022-09-03T11:40:27;4.55;;;1.13;;
19167;SDS011;9716;53.114;18.040;2022-09-03T11:43:05;0.73;;;0.60;;
19167;SDS011;9716;53.114;18.040;2022-09-03T11:45:38;1.15;;;0.65;;
19167;SDS011;9716;53.114;18.040;2022-09-03T11:48:26;0.52;;;0.43;;
19167;SDS011;9716;53.114;18.040;2022-09-03T11:51:01;7.90;;;0.98;;
19167;SDS011;9716;53.114;18.040;2022-09-03T11:53:34;0.57;;;0.57;;
19167;SDS011;9716;53.114;18.040;2022-09-03T11:56:16;1.15;;;0.70;;
19167;SDS011;9716;53.114;18.040;2022-09-03T11:58:57;1.27;;;0.70;;
19167;SDS011;9716;53.114;18.040;2022-09-03T12:01:28;1.08;;;0.50;;
19167;SDS011;9716;53.114;18.040;2022-09-03T12:03:59;0.40;;;0.40;;
19167;SDS011;9716;53.114;18.040;2022-09-03T12:06:41;0.60;;;0.60;;
19167;SDS011;9716;53.114;18.040;2022-09-03T12:09:28;0.73;;;0.60;;
19167;SDS011;9716;53.114;18.040;2022-09-03T12:12:25;0.60;;;0.60;;
19167;SDS011;9716;53.114;18.040;2022-09-03T12:15:08;0.55;;;0.55;;
19167;SDS011;9716;53.114;18.040;2022-09-03T12:17:51;0.60;;;0.60;;
19167;SDS011;9716;53.114;18.040;2022-09-03T12:20:36;0.40;;;0.40;;
19167;SDS011;9716;53.114;18.040;2022-09-03T12:23:06;0.50;;;0.50;;
19167;SDS011;9716;53.114;18.040;2022-09-03T12:25:41;0.50;;;0.50;;
19167;SDS011;9716;53.114;18.040;2022-09-03T12:28:15;0.57;;;0.57;;
19167;SDS011;9716;53.114;18.040;2022-09-03T12:30:47;4.97;;;0.73;;
19167;SDS011;9716;53.114;18.040;2022-09-03T12:33:20;1.05;;;0.57;;
19167;SDS011;9716;53.114;18.040;2022-09-03T12:35:58;0.90;;;0.50;;
19167;SDS011;9716;53.114;18.040;2022-09-03T12:38:28;0.40;;;0.40;;
19167;SDS011;9716;53.114;18.040;2022-09-03T12:41:21;4.07;;;0.80;;
19167;SDS011;9716;53.114;18.040;2022-09-03T12:43:54;0.55;;;0.52;;
19167;SDS011;9716;53.114;18.040;2022-09-03T12:46:25;1.40;;;0.70;;
19167;SDS011;9716;53.114;18.040;2022-09-03T12:49:00;0.30;;;0.30;;
19167;SDS011;9716;53.114;18.040;2022-09-03T12:51:58;1.00;;;0.65;;
19167;SDS011;9716;53.114;18.040;2022-09-03T12:54:32;1.52;;;0.50;;
19167;SDS011;9716;53.114;18.040;2022-09-03T12:57:02;1.05;;;0.63;;
19167;SDS011;9716;53.114;18.040;2022-09-03T12:59:32;2.13;;;0.60;;
19167;SDS011;9716;53.114;18.040;2022-09-03T13:02:04;1.13;;;0.60;;
19167;SDS011;9716;53.114;18.040;2022-09-03T13:04:44;0.50;;;0.50;;
19167;SDS011;9716;53.114;18.040;2022-09-03T13:07:19;1.08;;;0.65;;
19167;SDS011;9716;53.114;18.040;2022-09-03T13:09:59;0.50;;;0.50;;
19167;SDS011;9716;53.114;18.040;2022-09-03T13:12:31;0.73;;;0.57;;
19167;SDS011;9716;53.114;18.040;2022-09-03T13:15:09;0.45;;;0.45;;
19167;SDS011;9716;53.114;18.040;2022-09-03T13:20:39;0.52;;;0.47;;
19167;SDS011;9716;53.114;18.040;2022-09-03T13:23:30;0.50;;;0.50;;
19167;SDS011;9716;53.114;18.040;2022-09-03T13:26:10;0.40;;;0.40;;
19167;SDS011;9716;53.114;18.040;2022-09-03T13:28:53;0.75;;;0.50;;
19167;SDS011;9716;53.114;18.040;2022-09-03T13:31:34;1.08;;;0.50;;
19167;SDS011;9716;53.114;18.040;2022-09-03T13:34:08;0.73;;;0.60;;
19167;SDS011;9716;53.114;18.040;2022-09-03T13:36:44;0.50;;;0.50;;
19167;SDS011;9716;53.114;18.040;2022-09-03T13:39:19;0.55;;;0.45;;
19167;SDS011;9716;53.114;18.040;2022-09-03T13:41:53;1.30;;;0.60;;
19167;SDS011;9716;53.114;18.040;2022-09-03T13:44:32;1.08;;;0.50;;
19167;SDS011;9716;53.114;18.040;2022-09-03T13:47:07;0.57;;;0.57;;
19167;SDS011;9716;53.114;18.040;2022-09-03T13:49:41;0.40;;;0.40;;
19167;SDS011;9716;53.114;18.040;2022-09-03T13:52:36;0.50;;;0.50;;
19167;SDS011;9716;53.114;18.040;2022-09-03T13:55:11;0.65;;;0.60;;
19167;SDS011;9716;53.114;18.040;2022-09-03T13:57:46;1.88;;;0.80;;
19167;SDS011;9716;53.114;18.040;2022-09-03T14:00:26;0.40;;;0.40;;
19167;SDS011;9716;53.114;18.040;2022-09-03T14:03:02;0.50;;;0.50;;
19167;SDS011;9716;53.114;18.040;2022-09-03T14:05:40;8.27;;;0.80;;
19167;SDS011;9716;53.114;18.040;2022-09-03T14:08:20;0.50;;;0.50;;
19167;SDS011;9716;53.114;18.040;2022-09-03T14:10:59;0.40;;;0.40;;
19167;SDS011;9716;53.114;18.040;2022-09-03T14:13:37;1.70;;;1.15;;
19167;SDS011;9716;53.114;18.040;2022-09-03T14:16:19;0.90;;;0.70;;
19167;SDS011;9716;53.114;18.040;2022-09-03T14:18:57;0.57;;;0.55;;
19167;SDS011;9716;53.114;18.040;2022-09-03T14:21:29;0.70;;;0.70;;
19167;SDS011;9716;53.114;18.040;2022-09-03T14:24:03;0.40;;;0.40;;
19167;SDS011;9716;53.114;18.040;2022-09-03T14:26:49;0.38;;;0.38;;
19167;SDS011;9716;53.114;18.040;2022-09-03T14:29:20;0.63;;;0.63;;
19167;SDS011;9716;53.114;18.040;2022-09-03T14:34:55;0.32;;;0.32;;
19167;SDS011;9716;53.114;18.040;2022-09-03T14:37:48;0.98;;;0.52;;
19167;SDS011;9716;53.114;18.040;2022-09-03T14:40:28;1.50;;;0.50;;
19167;SDS011;9716;53.114;18.040;2022-09-03T14:43:11;0.30;;;0.30;;
19167;SDS011;9716;53.114;18.040;2022-09-03T14:57:47;0.50;;;0.40;;
19167;SDS011;9716;53.114;18.040;2022-09-03T15:00:43;0.70;;;0.70;;
19167;SDS011;9716;53.114;18.040;2022-09-03T15:03:33;0.68;;;0.68;;
19167;SDS011;9716;53.114;18.040;2022-09-03T15:06:13;0.57;;;0.57;;
19167;SDS011;9716;53.114;18.040;2022-09-03T15:11:50;0.70;;;0.57;;
19167;SDS011;9716;53.114;18.040;2022-09-03T15:14:24;0.32;;;0.32;;
19167;SDS011;9716;53.114;18.040;2022-09-03T15:17:00;4.45;;;0.60;;
19167;SDS011;9716;53.114;18.040;2022-09-03T15:22:32;0.77;;;0.57;;
19167;SDS011;9716;53.114;18.040;2022-09-03T15:25:17;1.50;;;0.60;;
19167;SDS011;9716;53.114;18.040;2022-09-03T15:28:01;0.60;;;0.60;;
19167;SDS011;9716;53.114;18.040;2022-09-03T15:30:39;1.15;;;0.60;;
19167;SDS011;9716;53.114;18.040;2022-09-03T15:33:14;0.90;;;0.80;;
19167;SDS011;9716;53.114;18.040;2022-09-03T15:35:57;0.60;;;0.60;;
19167;SDS011;9716;53.114;18.040;2022-09-03T15:38:36;0.82;;;0.60;;
19167;SDS011;9716;53.114;18.040;2022-09-03T15:41:10;0.85;;;0.80;;
19167;SDS011;9716;53.114;18.040;2022-09-03T15:43:51;0.88;;;0.70;;
19167;SDS011;9716;53.114;18.040;2022-09-03T15:46:33;3.33;;;0.50;;
19167;SDS011;9716;53.114;18.040;2022-09-03T15:49:09;0.50;;;0.50;;
19167;SDS011;9716;53.114;18.040;2022-09-03T15:51:54;0.93;;;0.63;;
19167;SDS011;9716;53.114;18.040;2022-09-03T15:54:35;0.63;;;0.55;;
19167;SDS011;9716;53.114;18.040;2022-09-03T15:57:10;5.07;;;0.80;;
19167;SDS011;9716;53.114;18.040;2022-09-03T15:59:46;0.40;;;0.40;;
19167;SDS011;9716;53.114;18.040;2022-09-03T16:02:19;0.50;;;0.50;;